Time;durP1;ratioP1;P1;durP2;ratioP2;P2;SDS_P1;SDS_P2;PMS_P1;PMS_P2;Temp;Humidity;BMP_temperature;BMP_pressure;BME280_temperature;BME280_humidity;BME280_pressure;Samples;Min_cycle;Max_cycle;Signal;HPM_P1;HPM_P2
2021/04/06 00:00:45;;;;;;;4.63;2.00;;;6.70;42.10;;;;;;5065202;28;20032;-66
2021/04/06 00:03:17;;;;;;;5.10;1.92;;;6.60;42.00;;;;;;5065233;28;20388;-65
2021/04/06 00:05:47;;;;;;;2.28;1.70;;;6.60;42.10;;;;;;5047857;28;20024;-65
2021/04/06 00:08:14;;;;;;;2.85;1.73;;;6.60;42.10;;;;;;5065789;28;20059;-65
2021/04/06 00:10:55;;;;;;;2.55;1.95;;;6.50;42.00;;;;;;5065607;28;20498;-65
2021/04/06 00:13:25;;;;;;;1.90;1.80;;;6.50;42.10;;;;;;5064701;28;20041;-65
2021/04/06 00:15:51;;;;;;;4.15;2.28;;;6.40;41.90;;;;;;5064800;28;20451;-65
2021/04/06 00:18:19;;;;;;;2.42;1.60;;;6.40;41.90;;;;;;5065460;28;20028;-65
2021/04/06 00:20:46;;;;;;;4.15;1.65;;;6.40;42.00;;;;;;5063733;28;20071;-66
2021/04/06 00:23:14;;;;;;;2.30;1.77;;;6.30;41.90;;;;;;5064999;28;20040;-66
2021/04/06 00:25:44;;;;;;;2.55;1.60;;;6.20;41.80;;;;;;5065474;28;20121;-66
2021/04/06 00:28:14;;;;;;;2.40;1.83;;;6.20;41.90;;;;;;5063695;28;20033;-65
2021/04/06 00:30:42;;;;;;;2.53;1.80;;;6.20;41.90;;;;;;5065349;28;20055;-65
2021/04/06 00:33:15;;;;;;;3.25;1.70;;;6.10;41.80;;;;;;5064820;28;20085;-65
2021/04/06 00:35:42;;;;;;;2.83;1.83;;;6.10;42.00;;;;;;5064308;28;20044;-65
2021/04/06 00:38:13;;;;;;;3.75;1.92;;;6.00;41.70;;;;;;5064695;28;20093;-65
2021/04/06 00:40:43;;;;;;;3.15;1.90;;;6.00;41.80;;;;;;5062910;28;20478;-65
2021/04/06 00:43:11;;;;;;;1.77;1.67;;;5.90;41.70;;;;;;5064531;28;20072;-66
2021/04/06 00:45:39;;;;;;;3.35;2.10;;;5.90;41.80;;;;;;5063753;28;20457;-66
2021/04/06 00:48:10;;;;;;;2.45;1.55;;;5.90;41.90;;;;;;5063295;28;20039;-65
2021/04/06 00:50:38;;;;;;;3.45;1.85;;;5.80;41.80;;;;;;5064347;28;20096;-65
2021/04/06 00:53:08;;;;;;;3.75;1.67;;;5.70;41.60;;;;;;5065059;28;20043;-66
2021/04/06 00:55:38;;;;;;;3.97;1.90;;;5.80;41.90;;;;;;5064137;28;20033;-65
2021/04/06 00:58:14;;;;;;;3.30;1.77;;;5.70;41.80;;;;;;5063257;28;20032;-65
2021/04/06 01:00:41;;;;;;;4.88;2.00;;;5.70;41.90;;;;;;5064319;28;20136;-65
2021/04/06 01:03:07;;;;;;;4.00;1.92;;;5.60;41.70;;;;;;5064097;28;20395;-65
2021/04/06 01:05:36;;;;;;;2.53;1.85;;;5.60;41.70;;;;;;5063954;28;20035;-65
2021/04/06 01:08:04;;;;;;;4.07;2.17;;;5.60;41.80;;;;;;5062807;28;20132;-65
2021/04/06 01:10:32;;;;;;;2.17;1.70;;;5.50;41.70;;;;;;5064600;28;20553;-65
2021/04/06 01:12:59;;;;;;;3.10;1.52;;;5.40;41.60;;;;;;5064096;28;20102;-66
2021/04/06 01:15:26;;;;;;;4.03;1.92;;;5.40;41.60;;;;;;5064055;28;20074;-65
2021/04/06 01:17:53;;;;;;;2.65;1.73;;;5.40;41.70;;;;;;5063964;28;20356;-65
2021/04/06 01:20:20;;;;;;;2.28;1.50;;;5.40;41.80;;;;;;5064383;28;20032;-65
2021/04/06 01:22:52;;;;;;;2.72;1.60;;;5.30;41.70;;;;;;5062494;28;20086;-65
2021/04/06 01:25:20;;;;;;;2.33;1.80;;;5.30;41.80;;;;;;5063885;28;20067;-65
2021/04/06 01:27:47;;;;;;;3.83;1.70;;;5.20;41.60;;;;;;5064260;28;20501;-65
2021/04/06 01:30:15;;;;;;;3.55;2.05;;;5.20;41.60;;;;;;5063456;28;20509;-65
2021/04/06 01:32:41;;;;;;;1.80;1.45;;;5.10;41.50;;;;;;5056122;22;20054;-71
2021/04/06 01:35:09;;;;;;;4.15;1.88;;;5.10;41.50;;;;;;5027437;28;20091;-70
2021/04/06 01:37:36;;;;;;;2.63;1.65;;;5.10;41.70;;;;;;5061052;28;20171;-71
2021/04/06 01:40:04;;;;;;;2.47;1.52;;;5.00;41.50;;;;;;5024077;28;20036;-72
2021/04/06 01:42:34;;;;;;;5.25;1.77;;;5.00;41.60;;;;;;5042218;28;20036;-71
2021/04/06 01:45:04;;;;;;;1.77;1.60;;;5.00;41.60;;;;;;5045713;28;20060;-71
2021/04/06 01:47:31;;;;;;;3.55;1.58;;;4.90;41.50;;;;;;5044238;22;20380;-82
2021/04/06 01:49:57;;;;;;;2.00;1.70;;;4.90;41.60;;;;;;5045888;28;20026;-83
2021/04/06 01:52:24;;;;;;;1.73;1.63;;;4.90;41.60;;;;;;5029831;28;20120;-82
2021/04/06 01:54:56;;;;;;;1.92;1.48;;;4.90;41.70;;;;;;5030360;28;20022;-83
2021/04/06 01:57:35;;;;;;;1.88;1.50;;;4.80;41.50;;;;;;5029936;28;20435;-82
2021/04/06 02:00:11;;;;;;;2.40;1.67;;;4.80;41.60;;;;;;5030127;28;20469;-82
2021/04/06 02:02:42;;;;;;;2.35;1.70;;;4.70;41.40;;;;;;5029819;28;20455;-82
2021/04/06 02:05:10;;;;;;;3.65;1.83;;;4.70;41.40;;;;;;4995462;28;20030;-82
2021/04/06 02:07:39;;;;;;;2.40;1.42;;;4.70;41.50;;;;;;4997548;28;20030;-82
2021/04/06 02:10:08;;;;;;;4.13;1.63;;;4.60;41.40;;;;;;5014088;28;20396;-82
2021/04/06 02:12:38;;;;;;;2.88;1.73;;;4.60;41.40;;;;;;5013952;28;20389;-83
2021/04/06 02:15:09;;;;;;;1.73;1.60;;;4.60;42.10;;;;;;5014122;28;20030;-82
2021/04/06 02:17:54;;;;;;;1.58;1.48;;;4.50;41.40;;;;;;5014071;28;20076;-83
2021/04/06 02:20:25;;;;;;;3.78;1.73;;;4.50;41.40;;;;;;5014028;28;20389;-83
2021/04/06 02:22:59;;;;;;;1.80;1.50;;;4.50;41.50;;;;;;5014086;28;20061;-83
2021/04/06 02:25:27;;;;;;;1.70;1.60;;;4.40;41.90;;;;;;5014039;28;20057;-82
2021/04/06 02:27:53;;;;;;;2.97;1.83;;;4.40;41.40;;;;;;5030232;28;20034;-83
2021/04/06 02:30:29;;;;;;;4.03;1.83;;;4.40;41.40;;;;;;5029848;28;20037;-82
2021/04/06 02:32:57;;;;;;;3.65;1.75;;;4.40;41.50;;;;;;5031008;28;20489;-83
2021/04/06 02:35:23;;;;;;;1.90;1.77;;;4.30;41.30;;;;;;4981093;28;20058;-83
2021/04/06 02:37:49;;;;;;;2.17;1.70;;;4.30;41.40;;;;;;5030248;28;20033;-82
2021/04/06 02:40:21;;;;;;;4.55;1.67;;;4.30;41.40;;;;;;5013819;28;20125;-82
2021/04/06 02:42:49;;;;;;;2.95;1.70;;;4.30;41.50;;;;;;5013252;28;20037;-83
2021/04/06 02:45:30;;;;;;;1.70;1.60;;;4.20;41.30;;;;;;5013605;28;20030;-81
2021/04/06 02:48:06;;;;;;;3.17;1.85;;;4.20;41.40;;;;;;4997107;28;20050;-81
2021/04/06 02:50:35;;;;;;;2.08;1.73;;;4.20;41.40;;;;;;4997143;28;20449;-79
2021/04/06 02:53:06;;;;;;;3.20;1.77;;;4.10;41.30;;;;;;4996990;28;20416;-81
2021/04/06 02:55:33;;;;;;;4.70;2.05;;;4.10;41.80;;;;;;5013528;28;20026;-82
2021/04/06 02:58:01;;;;;;;3.38;2.00;;;4.10;41.30;;;;;;5013181;28;20064;-81
2021/04/06 03:00:27;;;;;;;2.75;1.75;;;4.10;41.40;;;;;;4981033;28;20030;-81
2021/04/06 03:03:00;;;;;;;3.13;2.10;;;4.10;41.40;;;;;;5013351;28;20034;-81
2021/04/06 03:05:37;;;;;;;3.13;2.22;;;4.00;41.30;;;;;;4996919;28;20038;-81
2021/04/06 03:08:06;;;;;;;3.03;2.05;;;4.00;41.30;;;;;;5013259;28;20132;-82
2021/04/06 03:10:34;;;;;;;2.75;1.60;;;4.00;41.30;;;;;;5012909;28;20489;-82
2021/04/06 03:13:12;;;;;;;2.58;1.83;;;4.00;41.40;;;;;;4980289;28;20485;-82
2021/04/06 03:15:40;;;;;;;2.60;1.98;;;3.90;41.30;;;;;;5014531;28;20034;-84
2021/04/06 03:18:09;;;;;;;3.40;1.65;;;3.90;41.30;;;;;;5014588;28;20029;-82
2021/04/06 03:20:37;;;;;;;2.42;1.60;;;3.90;41.30;;;;;;5012756;28;20550;-82
2021/04/06 03:23:05;;;;;;;6.20;1.92;;;3.90;41.30;;;;;;4980746;28;20057;-82
2021/04/06 03:25:33;;;;;;;4.75;1.52;;;3.80;41.20;;;;;;4980630;28;20508;-82
2021/04/06 03:28:11;;;;;;;3.45;2.10;;;3.80;41.20;;;;;;4996340;28;20034;-82
2021/04/06 03:30:38;;;;;;;2.88;1.80;;;3.80;41.40;;;;;;4979737;28;20037;-82
2021/04/06 03:33:06;;;;;;;3.47;1.55;;;3.70;41.10;;;;;;4996832;28;20030;-82
2021/04/06 03:35:33;;;;;;;4.03;2.03;;;3.70;41.20;;;;;;5012314;28;20033;-82
2021/04/06 03:38:02;;;;;;;3.15;1.75;;;3.70;41.20;;;;;;5012511;28;20134;-82
2021/04/06 03:40:39;;;;;;;3.33;1.60;;;3.60;41.00;;;;;;4979998;28;20026;-82
2021/04/06 03:43:16;;;;;;;4.63;2.28;;;3.60;41.10;;;;;;4980139;28;20064;-83
2021/04/06 03:46:02;;;;;;;3.08;1.80;;;3.60;41.20;;;;;;4980004;28;20033;-82
2021/04/06 03:48:30;;;;;;;1.85;1.58;;;3.60;41.20;;;;;;4985074;28;20034;-83
2021/04/06 03:50:57;;;;;;;1.95;1.75;;;3.60;41.20;;;;;;5027995;28;20041;-81
2021/04/06 03:53:25;;;;;;;2.53;1.65;;;3.50;41.00;;;;;;5028318;28;20060;-82
2021/04/06 03:56:10;;;;;;;3.03;1.98;;;3.50;41.10;;;;;;5028616;28;20041;-81
2021/04/06 03:58:44;;;;;;;4.80;1.90;;;3.40;41.00;;;;;;5027991;28;20064;-81
2021/04/06 04:01:12;;;;;;;4.68;2.00;;;3.40;40.90;;;;;;5028244;28;20095;-82
2021/04/06 04:03:39;;;;;;;2.83;2.33;;;3.40;41.00;;;;;;5027925;28;20121;-83
2021/04/06 04:06:06;;;;;;;4.50;1.73;;;3.40;41.00;;;;;;5028735;28;20481;-82
2021/04/06 04:08:33;;;;;;;5.03;1.67;;;3.40;41.10;;;;;;4995809;28;20029;-81
2021/04/06 04:10:59;;;;;;;2.15;1.83;;;3.40;41.20;;;;;;4995364;28;20107;-82
2021/04/06 04:13:30;;;;;;;6.15;2.05;;;3.30;41.00;;;;;;5028718;28;20026;-83
2021/04/06 04:15:56;;;;;;;3.35;1.67;;;3.30;41.10;;;;;;5012767;28;20030;-82
2021/04/06 04:18:22;;;;;;;4.80;1.83;;;3.30;41.10;;;;;;5033079;28;20071;-83
2021/04/06 04:20:48;;;;;;;3.67;1.60;;;3.30;41.20;;;;;;5014911;28;20541;-84
2021/04/06 04:23:14;;;;;;;4.50;1.88;;;3.30;41.30;;;;;;5048239;28;20504;-84
2021/04/06 04:25:40;;;;;;;2.85;1.73;;;3.30;41.30;;;;;;5031977;28;20029;-83
2021/04/06 04:28:06;;;;;;;2.50;1.98;;;3.30;41.40;;;;;;5033105;28;20030;-84
2021/04/06 04:30:37;;;;;;;4.00;1.60;;;3.20;41.20;;;;;;5031725;28;20116;-84
2021/04/06 04:33:08;;;;;;;4.03;2.03;;;3.20;41.30;;;;;;5014917;28;20052;-84
2021/04/06 04:35:36;;;;;;;2.97;1.92;;;3.20;41.30;;;;;;5047897;28;20017;-84
2021/04/06 04:38:02;;;;;;;3.42;1.92;;;3.20;41.30;;;;;;5032632;28;20112;-84
2021/04/06 04:40:29;;;;;;;5.30;2.35;;;3.20;41.30;;;;;;5014995;28;20029;-84
2021/04/06 04:42:56;;;;;;;1.73;1.60;;;3.20;41.40;;;;;;5014608;28;20045;-84
2021/04/06 04:45:23;;;;;;;3.20;1.77;;;3.20;41.40;;;;;;5033021;28;20025;-82
2021/04/06 04:47:50;;;;;;;2.40;1.67;;;3.20;41.40;;;;;;5022325;28;20050;-83
2021/04/06 04:50:17;;;;;;;6.70;1.63;;;3.20;41.50;;;;;;5021021;28;20026;-83
2021/04/06 04:52:44;;;;;;;1.92;1.67;;;3.20;41.50;;;;;;5008246;28;20125;-84
2021/04/06 04:55:13;;;;;;;1.65;1.55;;;3.20;41.50;;;;;;5023663;28;20038;-83
2021/04/06 04:57:40;;;;;;;3.33;1.88;;;3.30;41.70;;;;;;5026215;28;20030;-86
2021/04/06 05:00:09;;;;;;;4.00;2.00;;;3.30;41.70;;;;;;4995048;28;20532;-84
2021/04/06 05:02:35;;;;;;;3.55;1.73;;;3.30;41.70;;;;;;4991038;28;20046;-84
2021/04/06 05:05:01;;;;;;;2.60;1.73;;;3.30;41.70;;;;;;5007558;28;20061;-83
2021/04/06 05:07:28;;;;;;;4.93;2.20;;;3.30;41.60;;;;;;5011047;28;20167;-83
2021/04/06 05:09:54;;;;;;;1.65;1.40;;;3.30;41.70;;;;;;5026670;28;20076;-87
2021/04/06 05:12:20;;;;;;;2.70;1.83;;;3.40;41.90;;;;;;5011043;28;20095;-86
2021/04/06 05:14:47;;;;;;;4.50;1.48;;;3.40;41.90;;;;;;4994847;28;20048;-84
2021/04/06 05:17:15;;;;;;;1.75;1.42;;;3.40;41.80;;;;;;5028198;28;20063;-84
2021/04/06 05:19:41;;;;;;;7.47;2.00;;;3.40;41.80;;;;;;5010665;28;20564;-85
2021/04/06 05:22:08;;;;;;;3.40;1.88;;;3.50;42.00;;;;;;5028763;28;20124;-84
2021/04/06 05:24:34;;;;;;;5.40;1.70;;;3.50;42.00;;;;;;4994627;28;20037;-83
2021/04/06 05:27:00;;;;;;;3.08;1.92;;;3.50;41.90;;;;;;4995147;28;20044;-86
2021/04/06 05:29:26;;;;;;;3.03;1.98;;;3.50;41.90;;;;;;5010798;28;20025;-83
2021/04/06 05:31:52;;;;;;;2.60;1.48;;;3.60;42.10;;;;;;4994761;28;20029;-83
2021/04/06 05:34:18;;;;;;;2.63;1.95;;;3.60;42.00;;;;;;4993850;28;20037;-84
2021/04/06 05:36:44;;;;;;;4.00;2.03;;;3.70;42.20;;;;;;4993822;28;20034;-83
2021/04/06 05:39:10;;;;;;;2.67;1.50;;;3.60;42.00;;;;;;4989117;28;20060;-82
2021/04/06 05:41:41;;;;;;;3.65;1.50;;;3.70;42.10;;;;;;5014103;28;20105;-82
2021/04/06 05:44:10;;;;;;;1.42;1.33;;;3.70;42.10;;;;;;5007113;28;20036;-83
2021/04/06 05:46:37;;;;;;;5.40;1.65;;;3.70;42.10;;;;;;4991781;28;20052;-83
2021/04/06 05:49:11;;;;;;;1.85;1.60;;;3.70;42.10;;;;;;5025967;28;20030;-83
2021/04/06 05:51:41;;;;;;;2.50;1.75;;;3.80;42.30;;;;;;5017351;28;20051;-85
2021/04/06 05:54:10;;;;;;;5.22;1.65;;;3.80;42.30;;;;;;5025900;28;20072;-84
2021/04/06 05:56:36;;;;;;;3.50;1.70;;;3.80;42.30;;;;;;5019559;28;20038;-82
2021/04/06 05:59:04;;;;;;;3.10;1.73;;;3.80;42.20;;;;;;5026018;28;20041;-84
2021/04/06 06:01:39;;;;;;;1.48;1.38;;;3.80;42.20;;;;;;5005722;28;20042;-84
2021/04/06 06:04:25;;;;;;;3.40;1.80;;;3.90;42.50;;;;;;5021947;28;20033;-88
2021/04/06 06:06:53;;;;;;;6.13;2.13;;;3.90;42.40;;;;;;5011338;28;20033;-87
2021/04/06 06:09:33;;;;;;;3.05;2.10;;;4.00;42.70;;;;;;5037602;28;20068;-87
2021/04/06 06:12:02;;;;;;;6.22;2.20;;;4.00;42.80;;;;;;4977395;28;20037;-84
2021/04/06 06:14:30;;;;;;;4.18;1.95;;;4.10;43.00;;;;;;5009893;28;20033;-85
2021/04/06 06:17:12;;;;;;;5.88;1.75;;;4.10;43.10;;;;;;5019115;28;20103;-84
2021/04/06 06:19:39;;;;;;;2.33;1.60;;;4.20;43.40;;;;;;5024814;28;20032;-81
2021/04/06 06:22:25;;;;;;;4.88;1.80;;;4.30;43.50;;;;;;4994415;28;20045;-84
2021/04/06 06:25:05;;;;;;;6.32;2.08;;;4.40;43.80;;;;;;5023621;28;20030;-83
2021/04/06 06:27:36;;;;;;;3.13;1.88;;;4.50;44.00;;;;;;5007206;28;20560;-79
2021/04/06 06:30:28;;;;;;;3.75;2.25;;;4.60;44.00;;;;;;4994947;28;20098;-85
2021/04/06 06:33:22;;;;;;;4.88;2.25;;;4.80;44.50;;;;;;4991820;28;20068;-84
2021/04/06 06:35:59;;;;;;;5.40;2.00;;;4.90;44.60;;;;;;5026030;28;20097;-82
2021/04/06 06:38:33;;;;;;;4.90;1.70;;;5.00;44.70;;;;;;4995264;28;20053;-83
2021/04/06 06:41:25;;;;;;;3.42;2.42;;;5.20;45.00;;;;;;4994910;28;20036;-87
2021/04/06 06:43:55;;;;;;;5.60;1.90;;;5.30;45.20;;;;;;5012047;28;20120;-85
2021/04/06 06:46:37;;;;;;;4.75;2.88;;;5.50;45.40;;;;;;5011697;28;20782;-87
2021/04/06 06:49:08;;;;;;;3.65;2.42;;;5.70;45.70;;;;;;5011927;28;20339;-86
2021/04/06 06:51:40;;;;;;;3.78;1.92;;;5.90;45.80;;;;;;5014334;28;20037;-86
2021/04/06 06:54:07;;;;;;;3.70;1.77;;;6.00;46.00;;;;;;5014788;28;20127;-87
2021/04/06 06:56:57;;;;;;;4.00;2.05;;;6.20;46.20;;;;;;4999037;28;20029;-86
2021/04/06 06:59:50;;;;;;;4.15;2.33;;;6.40;46.70;;;;;;5013337;28;20141;-87
2021/04/06 07:02:29;;;;;;;2.78;1.92;;;6.60;46.90;;;;;;5011986;28;20054;-83
2021/04/06 07:05:14;;;;;;;7.57;2.00;;;6.80;47.10;;;;;;5030177;28;20120;-81
2021/04/06 07:07:57;;;;;;;4.03;1.88;;;7.00;47.90;;;;;;5021939;28;20029;-84
2021/04/06 07:10:28;;;;;;;3.88;2.15;;;7.30;49.00;;;;;;5025160;28;20037;-81
2021/04/06 07:12:58;;;;;;;3.30;1.92;;;7.60;49.50;;;;;;5054096;28;20055;-82
2021/04/06 07:15:26;;;;;;;7.45;2.40;;;7.90;50.20;;;;;;5050291;28;20045;-84
2021/04/06 07:18:00;;;;;;;5.10;2.33;;;8.10;50.40;;;;;;5030731;28;20030;-83
2021/04/06 07:20:28;;;;;;;7.05;2.42;;;8.50;51.20;;;;;;4998227;28;20410;-82
2021/04/06 07:22:58;;;;;;;4.15;2.33;;;8.70;51.30;;;;;;5011800;28;20049;-79
2021/04/06 07:25:25;;;;;;;4.60;2.08;;;8.90;51.60;;;;;;5029955;28;20022;-79
2021/04/06 07:27:51;;;;;;;1.95;1.85;;;9.10;51.90;;;;;;5030132;28;20029;-83
2021/04/06 07:30:18;;;;;;;8.15;2.10;;;9.30;52.20;;;;;;5031024;28;20388;-86
2021/04/06 07:32:44;;;;;;;4.20;2.00;;;9.50;52.50;;;;;;5045378;28;20066;-86
2021/04/06 07:35:11;;;;;;;7.22;1.75;;;9.70;52.70;;;;;;5014024;28;20056;-86
2021/04/06 07:37:43;;;;;;;3.70;1.77;;;9.80;52.80;;;;;;5013971;28;20029;-87
2021/04/06 07:40:12;;;;;;;4.22;1.80;;;10.00;53.20;;;;;;5048066;28;20033;-83
2021/04/06 07:42:40;;;;;;;3.90;1.90;;;10.20;53.20;;;;;;5034050;28;20091;-86
2021/04/06 07:45:30;;;;;;;4.95;2.10;;;10.30;53.00;;;;;;5040406;28;20033;-85
2021/04/06 07:47:56;;;;;;;5.03;1.80;;;10.40;52.90;;;;;;4992120;28;20088;-87
2021/04/06 07:50:50;;;;;;;4.22;2.50;;;10.50;52.80;;;;;;5011555;28;20549;-86
2021/04/06 07:53:20;;;;;;;6.72;1.85;;;10.60;52.90;;;;;;4992583;28;20491;-88
2021/04/06 07:56:28;;;;;;;3.15;1.60;;;10.70;52.80;;;;;;5038771;28;20033;-87
2021/04/06 08:04:27;;;;;;;2.20;1.83;;;11.00;52.60;;;;;;4928157;28;20102;-87
2021/04/06 08:07:16;;;;;;;5.78;1.95;;;11.20;52.20;;;;;;4956148;28;20031;-89
2021/04/06 08:11:34;;;;;;;2.60;1.50;;;11.30;52.10;;;;;;4893092;28;20070;-83
2021/04/06 08:19:53;;;;;;;2.80;1.65;;;11.40;51.10;;;;;;4886152;29;20059;-85
2021/04/06 08:22:25;;;;;;;3.97;2.08;;;11.30;50.60;;;;;;4882835;29;20040;-87
2021/04/06 08:24:51;;;;;;;3.47;1.95;;;11.20;50.90;;;;;;4881340;29;20067;-90
2021/04/06 08:27:34;;;;;;;3.35;2.03;;;11.10;50.10;;;;;;4885223;29;20028;-89
2021/04/06 08:30:16;;;;;;;4.83;1.97;;;11.10;49.80;;;;;;4902367;29;20039;-88
2021/04/06 09:38:40;;;;;;;11.93;1.63;;;10.00;47.40;;;;;;5029543;28;20110;-84
2021/04/06 09:41:18;;;;;;;1.98;1.33;;;10.00;47.50;;;;;;4995993;28;20045;-84
2021/04/06 09:44:07;;;;;;;2.53;1.25;;;10.00;48.00;;;;;;5011742;28;20484;-86
2021/04/06 09:46:36;;;;;;;4.60;1.30;;;10.10;48.60;;;;;;4981455;28;20485;-85
2021/04/06 09:49:56;;;;;;;3.92;1.38;;;10.30;49.10;;;;;;5004197;28;20049;-85
2021/04/06 09:52:27;;;;;;;4.78;1.70;;;10.60;49.60;;;;;;4980607;28;20087;-85
2021/04/06 09:55:08;;;;;;;2.30;1.25;;;10.70;49.70;;;;;;5010140;28;20489;-84
2021/04/06 09:57:52;;;;;;;2.53;1.67;;;10.90;50.10;;;;;;4993183;28;20029;-83
2021/04/06 10:00:39;;;;;;;3.42;1.38;;;11.10;50.30;;;;;;4991017;28;20044;-86
2021/04/06 10:24:22;;;;;;;4.22;1.40;;;11.30;48.90;;;;;;4992549;28;20109;-90
2021/04/06 10:27:05;;;;;;;3.53;1.77;;;11.20;48.70;;;;;;4979487;28;20049;-90
2021/04/06 10:30:31;;;;;;;4.50;1.20;;;11.20;48.40;;;;;;5002477;28;20063;-87
2021/04/06 10:33:08;;;;;;;3.08;1.65;;;11.20;48.50;;;;;;5019913;28;20034;-90
2021/04/06 10:35:53;;;;;;;2.20;1.23;;;11.30;48.50;;;;;;5014998;28;20543;-86
2021/04/06 10:38:35;;;;;;;3.30;1.25;;;11.30;48.30;;;;;;5030917;28;20036;-87
2021/04/06 10:42:27;;;;;;;4.32;1.70;;;11.40;48.30;;;;;;5014900;28;20038;-89
2021/04/06 10:46:52;;;;;;;3.42;1.50;;;11.50;48.20;;;;;;5031255;28;20365;-89
2021/04/06 10:49:19;;;;;;;3.35;1.58;;;11.60;48.20;;;;;;5014305;28;20026;-86
2021/04/06 10:51:55;;;;;;;1.40;1.20;;;11.60;48.20;;;;;;5013874;28;20036;-87
2021/04/06 10:54:21;;;;;;;2.45;1.45;;;11.70;48.20;;;;;;5035662;28;20029;-86
2021/04/06 10:56:58;;;;;;;3.40;1.60;;;11.80;48.30;;;;;;5000761;28;20072;-88
2021/04/06 10:59:32;;;;;;;3.53;1.38;;;12.00;48.40;;;;;;5041434;28;20370;-87
2021/04/06 11:02:00;;;;;;;1.83;1.05;;;12.10;48.30;;;;;;5015342;28;20042;-86
2021/04/06 11:19:43;;;;;;;2.63;1.40;;;12.90;48.30;;;;;;5023887;28;20520;-84
2021/04/06 11:23:36;;;;;;;1.65;1.15;;;13.00;48.20;;;;;;5006319;28;20085;-87
2021/04/06 11:26:27;;;;;;;1.80;1.15;;;13.10;48.20;;;;;;4957261;28;20466;-86
2021/04/06 11:29:50;;;;;;;2.00;1.33;;;13.20;48.30;;;;;;4977696;28;20083;-86
2021/04/06 11:32:44;;;;;;;1.23;1.00;;;13.20;48.10;;;;;;4976867;28;20457;-85
2021/04/06 11:35:35;;;;;;;3.20;1.40;;;13.20;48.30;;;;;;4973651;28;20058;-85
2021/04/06 11:38:02;;;;;;;2.83;1.05;;;13.30;48.30;;;;;;4957049;28;20043;-83
2021/04/06 11:40:41;;;;;;;3.13;1.40;;;13.40;48.30;;;;;;4994270;28;20034;-83
2021/04/06 11:43:09;;;;;;;4.00;2.03;;;13.60;48.40;;;;;;4961664;28;20054;-84
2021/04/06 11:45:35;;;;;;;4.63;2.40;;;13.70;48.00;;;;;;4984681;28;20035;-84
2021/04/06 11:48:01;;;;;;;2.78;2.20;;;13.80;47.70;;;;;;4957048;28;20089;-82
2021/04/06 11:50:27;;;;;;;3.53;2.15;;;13.90;47.50;;;;;;5006801;28;20102;-85
2021/04/06 11:52:53;;;;;;;3.55;2.20;;;13.80;46.90;;;;;;4986489;28;20026;-85
2021/04/06 11:55:19;;;;;;;3.97;1.95;;;13.80;46.60;;;;;;4987489;28;20035;-86
2021/04/06 12:02:19;;;;;;;3.05;2.28;;;13.80;46.40;;;;;;4901323;29;20083;-86
2021/04/06 12:04:45;;;;;;;17.83;7.75;;;13.70;46.20;;;;;;4897093;28;20129;-86
2021/04/06 12:07:12;;;;;;;19.80;9.35;;;13.70;46.50;;;;;;4976277;28;20030;-93
2021/04/06 12:09:38;;;;;;;8.98;6.63;;;13.70;46.90;;;;;;4973287;28;20037;-87
2021/04/06 13:00:56;;;;;;;3.97;3.08;;;15.10;47.30;;;;;;5029830;28;20106;-91
2021/04/06 13:17:09;;;;;;;2.90;2.38;;;15.20;46.70;;;;;;5011775;28;20036;-82
2021/04/06 13:19:36;;;;;;;6.10;2.15;;;15.20;46.90;;;;;;5015187;28;20025;-93
2021/04/06 13:22:02;;;;;;;6.25;2.13;;;15.20;46.80;;;;;;5018806;28;20396;-90
2021/04/06 13:24:28;;;;;;;4.20;2.10;;;15.20;46.70;;;;;;4999410;28;20037;-91
2021/04/06 13:27:04;;;;;;;4.97;2.10;;;15.20;46.50;;;;;;4982762;28;20128;-85
2021/04/06 13:29:30;;;;;;;2.75;1.90;;;15.20;46.30;;;;;;5020952;28;20040;-86
2021/04/06 13:31:56;;;;;;;5.28;2.00;;;15.20;46.30;;;;;;5009348;28;20038;-85
2021/04/06 13:34:23;;;;;;;2.58;1.90;;;15.30;46.30;;;;;;5008919;28;20072;-84
2021/04/06 13:36:51;;;;;;;1.80;1.48;;;15.30;46.10;;;;;;5011032;28;20116;-87
2021/04/06 13:39:17;;;;;;;2.08;1.60;;;15.30;45.90;;;;;;4995770;28;20036;-85
2021/04/06 13:41:43;;;;;;;3.58;1.50;;;15.20;45.70;;;;;;5027181;28;20033;-85
2021/04/06 13:44:09;;;;;;;2.80;1.85;;;15.10;45.50;;;;;;4994608;28;20100;-87
2021/04/06 13:46:37;;;;;;;2.03;1.65;;;15.00;45.30;;;;;;4993649;28;20481;-90
2021/04/06 13:49:04;;;;;;;2.10;1.90;;;14.90;45.20;;;;;;5010526;28;20064;-88
2021/04/06 13:51:30;;;;;;;1.88;1.25;;;14.80;45.10;;;;;;5010496;28;20037;-86
2021/04/06 13:53:56;;;;;;;2.10;1.55;;;14.70;45.00;;;;;;5010821;28;20026;-89
2021/04/06 13:56:23;;;;;;;1.42;1.30;;;14.70;45.10;;;;;;5013487;28;20034;-92
2021/04/06 13:58:49;;;;;;;2.85;1.23;;;14.70;45.10;;;;;;5003314;28;20033;-91
2021/04/06 14:01:15;;;;;;;2.30;1.55;;;14.70;45.00;;;;;;5002056;28;21890;-90
2021/04/06 14:03:41;;;;;;;1.92;1.33;;;14.60;44.80;;;;;;5014426;28;20116;-88
2021/04/06 14:06:07;;;;;;;1.50;1.40;;;14.50;44.60;;;;;;5000629;28;20031;-91
2021/04/06 14:08:37;;;;;;;1.73;1.35;;;14.40;44.50;;;;;;5000786;28;20476;-91
2021/04/06 14:11:04;;;;;;;2.10;1.58;;;14.40;44.50;;;;;;5038691;28;20033;-88
2021/04/06 14:13:30;;;;;;;2.45;1.40;;;14.40;44.50;;;;;;5019963;28;20076;-90
2021/04/06 14:15:56;;;;;;;1.67;1.38;;;14.30;44.30;;;;;;4996074;28;20030;-90
2021/04/06 14:18:22;;;;;;;1.45;1.13;;;14.20;44.10;;;;;;4985645;28;20038;-90
2021/04/06 14:20:49;;;;;;;5.75;1.50;;;14.20;44.10;;;;;;5015870;28;20091;-86
2021/04/06 14:23:23;;;;;;;1.52;1.20;;;14.20;44.20;;;;;;5012294;28;20053;-90
2021/04/06 14:25:49;;;;;;;1.45;1.15;;;14.20;44.20;;;;;;4980736;28;20030;-92
2021/04/06 14:28:18;;;;;;;2.60;1.30;;;14.30;44.30;;;;;;4993344;28;20056;-90
2021/04/06 14:30:49;;;;;;;3.03;1.77;;;14.30;44.20;;;;;;5013129;28;20168;-83
2021/04/06 14:33:16;;;;;;;2.45;1.45;;;14.40;44.20;;;;;;5007620;28;20619;-83
2021/04/06 14:35:43;;;;;;;2.72;1.38;;;14.50;44.30;;;;;;4993171;28;20030;-86
2021/04/06 14:38:10;;;;;;;0.88;0.88;;;14.60;44.30;;;;;;5011598;28;20030;-86
2021/04/06 14:40:49;;;;;;;1.15;1.05;;;14.70;44.30;;;;;;4982910;28;20046;-86
2021/04/06 14:48:08;;;;;;;2.13;1.17;;;14.90;44.20;;;;;;5035179;28;20056;-87
2021/04/06 14:51:00;;;;;;;1.92;1.20;;;15.00;44.30;;;;;;4992494;28;20073;-86
2021/04/06 14:53:28;;;;;;;1.40;1.30;;;15.10;44.30;;;;;;5034373;28;20025;-84
2021/04/06 14:55:54;;;;;;;1.67;1.20;;;15.20;44.30;;;;;;5015590;28;20029;-82
2021/04/06 14:58:29;;;;;;;5.78;1.08;;;15.30;44.30;;;;;;5030897;28;20025;-85
2021/04/06 15:00:56;;;;;;;1.88;1.10;;;15.40;44.20;;;;;;5032533;28;20022;-85
2021/04/06 15:03:23;;;;;;;1.27;0.98;;;15.50;44.30;;;;;;4999155;28;20047;-86
2021/04/06 15:05:49;;;;;;;1.13;1.00;;;15.60;44.30;;;;;;5015515;28;20036;-87
2021/04/06 15:08:20;;;;;;;1.65;1.30;;;15.70;44.30;;;;;;5018165;28;20495;-87
2021/04/06 15:10:49;;;;;;;1.17;1.08;;;15.70;44.00;;;;;;5017711;28;20404;-87
2021/04/06 15:14:14;;;;;;;2.45;1.38;;;15.80;44.00;;;;;;4992802;28;20626;-90
2021/04/06 15:17:02;;;;;;;2.20;1.08;;;15.90;43.80;;;;;;5030637;28;20045;-84
2021/04/06 15:19:32;;;;;;;1.10;1.00;;;15.90;43.80;;;;;;5013739;28;20436;-82
2021/04/06 15:22:03;;;;;;;1.20;1.00;;;16.00;43.60;;;;;;5015129;28;20118;-86
2021/04/06 15:24:32;;;;;;;1.13;1.00;;;16.00;43.30;;;;;;5018402;28;20079;-91
2021/04/06 15:27:00;;;;;;;1.45;1.15;;;16.00;43.10;;;;;;5001485;28;20492;-88
2021/04/06 15:29:27;;;;;;;1.17;1.05;;;16.10;43.20;;;;;;5015436;28;20026;-89
2021/04/06 15:31:55;;;;;;;2.60;1.13;;;16.10;43.10;;;;;;4982540;28;20030;-87
2021/04/06 15:34:22;;;;;;;1.85;0.90;;;16.20;43.20;;;;;;5016859;28;20084;-87
2021/04/06 15:36:48;;;;;;;0.98;0.93;;;16.20;43.10;;;;;;5017403;28;20033;-85
2021/04/06 15:39:25;;;;;;;1.55;1.10;;;16.30;43.20;;;;;;4999683;28;20033;-87
2021/04/06 15:41:55;;;;;;;2.17;1.20;;;16.40;43.30;;;;;;5016400;28;20428;-89
2021/04/06 15:44:21;;;;;;;1.98;1.10;;;16.50;43.30;;;;;;4998147;28;20120;-83
2021/04/06 15:46:48;;;;;;;0.82;0.82;;;16.60;43.40;;;;;;5015136;28;20033;-89
2021/04/06 15:49:18;;;;;;;1.88;1.17;;;16.70;44.00;;;;;;5016866;28;20048;-89
2021/04/06 15:51:51;;;;;;;1.13;1.00;;;16.60;43.00;;;;;;4999096;28;20504;-86
2021/04/06 15:54:33;;;;;;;4.50;1.05;;;16.80;43.10;;;;;;5000940;28;20484;-88
2021/04/06 15:57:00;;;;;;;0.95;0.82;;;16.80;42.90;;;;;;5017102;28;20047;-86
2021/04/06 15:59:26;;;;;;;4.50;1.10;;;16.80;43.00;;;;;;5015586;28;20484;-85
2021/04/06 16:01:53;;;;;;;1.98;1.10;;;16.70;42.60;;;;;;5031096;28;20132;-88
2021/04/06 16:04:20;;;;;;;0.93;0.93;;;16.70;42.50;;;;;;5016853;28;20055;-87
2021/04/06 16:06:47;;;;;;;2.15;1.17;;;16.60;42.30;;;;;;5014554;28;20033;-86
2021/04/06 16:09:13;;;;;;;2.03;1.10;;;16.40;41.90;;;;;;4999885;28;20542;-87
2021/04/06 16:11:40;;;;;;;2.38;1.10;;;16.30;41.80;;;;;;5030289;28;20026;-87
2021/04/06 16:14:07;;;;;;;2.10;0.90;;;16.20;41.80;;;;;;4996711;28;20021;-87
2021/04/06 16:17:15;;;;;;;0.90;0.90;;;16.20;41.80;;;;;;5009854;28;20038;-86
2021/04/06 17:24:38;;;;;;;1.20;1.10;;;15.40;43.60;;;;;;5006532;28;20078;-84
2021/04/06 17:27:43;;;;;;;1.30;1.20;;;15.30;43.50;;;;;;4971944;28;20040;-83
2021/04/06 17:30:21;;;;;;;1.23;1.00;;;15.30;43.60;;;;;;4988778;28;20524;-85
2021/04/06 17:32:48;;;;;;;1.00;0.98;;;15.20;43.50;;;;;;5005566;28;20052;-89